sensor_id;sensor_type;location;lat;lon;timestamp;temperature;humidity
13610;DHT22;6876;50.788;4.940;2023-02-28T00:02:21;0.60;99.90
13610;DHT22;6876;50.788;4.940;2023-02-28T00:05:12;0.60;99.90
13610;DHT22;6876;50.788;4.940;2023-02-28T00:08:00;0.50;99.90
13610;DHT22;6876;50.788;4.940;2023-02-28T00:10:48;0.50;99.90
13610;DHT22;6876;50.788;4.940;2023-02-28T00:13:39;0.50;99.90
13610;DHT22;6876;50.788;4.940;2023-02-28T00:16:27;0.50;99.90
13610;DHT22;6876;50.788;4.940;2023-02-28T00:19:14;0.40;99.90
13610;DHT22;6876;50.788;4.940;2023-02-28T00:22:02;0.40;99.90
13610;DHT22;6876;50.788;4.940;2023-02-28T00:24:49;0.40;99.90
13610;DHT22;6876;50.788;4.940;2023-02-28T00:27:39;0.40;99.90
13610;DHT22;6876;50.788;4.940;2023-02-28T00:30:27;0.40;99.90
13610;DHT22;6876;50.788;4.940;2023-02-28T00:33:14;0.30;99.90
13610;DHT22;6876;50.788;4.940;2023-02-28T00:36:07;0.30;99.90
13610;DHT22;6876;50.788;4.940;2023-02-28T00:38:54;0.30;99.90
13610;DHT22;6876;50.788;4.940;2023-02-28T00:41:42;0.20;1.00
13610;DHT22;6876;50.788;4.940;2023-02-28T00:44:31;0.20;99.90
13610;DHT22;6876;50.788;4.940;2023-02-28T00:47:18;0.20;1.00
13610;DHT22;6876;50.788;4.940;2023-02-28T00:50:06;0.20;99.90
13610;DHT22;6876;50.788;4.940;2023-02-28T00:52:54;0.20;99.90
13610;DHT22;6876;50.788;4.940;2023-02-28T00:55:41;0.20;1.00
13610;DHT22;6876;50.788;4.940;2023-02-28T00:58:29;0.20;79.30
13610;DHT22;6876;50.788;4.940;2023-02-28T01:01:17;0.10;13.50
13610;DHT22;6876;50.788;4.940;2023-02-28T01:04:05;0.10;1.00
13610;DHT22;6876;50.788;4.940;2023-02-28T01:06:52;0.00;1.00
13610;DHT22;6876;50.788;4.940;2023-02-28T01:09:39;0.00;90.40
13610;DHT22;6876;50.788;4.940;2023-02-28T01:12:27;0.00;1.00
13610;DHT22;6876;50.788;4.940;2023-02-28T01:15:14;0.00;99.90
13610;DHT22;6876;50.788;4.940;2023-02-28T01:18:03;-0.10;99.90
13610;DHT22;6876;50.788;4.940;2023-02-28T01:20:50;-0.10;99.90
13610;DHT22;6876;50.788;4.940;2023-02-28T01:23:38;-0.10;1.00
13610;DHT22;6876;50.788;4.940;2023-02-28T01:26:26;-0.10;99.90
13610;DHT22;6876;50.788;4.940;2023-02-28T01:29:13;-0.10;1.00
13610;DHT22;6876;50.788;4.940;2023-02-28T01:32:01;-0.10;6.80
13610;DHT22;6876;50.788;4.940;2023-02-28T01:34:51;-0.10;1.00
13610;DHT22;6876;50.788;4.940;2023-02-28T01:37:38;-0.20;1.00
13610;DHT22;6876;50.788;4.940;2023-02-28T01:40:25;-0.20;1.00
13610;DHT22;6876;50.788;4.940;2023-02-28T01:43:20;-0.20;1.00
13610;DHT22;6876;50.788;4.940;2023-02-28T01:46:09;-0.20;99.90
13610;DHT22;6876;50.788;4.940;2023-02-28T01:49:00;-0.20;1.00
13610;DHT22;6876;50.788;4.940;2023-02-28T01:51:53;-0.30;1.00
13610;DHT22;6876;50.788;4.940;2023-02-28T01:54:41;-0.30;1.00
13610;DHT22;6876;50.788;4.940;2023-02-28T01:57:32;-0.30;36.30
13610;DHT22;6876;50.788;4.940;2023-02-28T02:00:25;-0.30;90.30
13610;DHT22;6876;50.788;4.940;2023-02-28T02:03:14;-0.30;1.00
13610;DHT22;6876;50.788;4.940;2023-02-28T02:06:05;-0.40;1.00
13610;DHT22;6876;50.788;4.940;2023-02-28T02:08:55;-0.40;1.00
13610;DHT22;6876;50.788;4.940;2023-02-28T02:11:44;-0.50;1.00
13610;DHT22;6876;50.788;4.940;2023-02-28T02:14:40;-0.50;1.00
13610;DHT22;6876;50.788;4.940;2023-02-28T02:17:35;-0.50;99.90
13610;DHT22;6876;50.788;4.940;2023-02-28T02:20:38;-0.50;1.00
13610;DHT22;6876;50.788;4.940;2023-02-28T02:23:58;-0.60;1.00
13610;DHT22;6876;50.788;4.940;2023-02-28T02:26:55;-0.60;99.90
13610;DHT22;6876;50.788;4.940;2023-02-28T02:33:48;-0.60;1.00
13610;DHT22;6876;50.788;4.940;2023-02-28T02:36:44;-0.70;1.00
13610;DHT22;6876;50.788;4.940;2023-02-28T02:39:40;-0.70;1.00
13610;DHT22;6876;50.788;4.940;2023-02-28T02:42:37;-0.70;1.00
13610;DHT22;6876;50.788;4.940;2023-02-28T02:45:29;-0.80;1.00
13610;DHT22;6876;50.788;4.940;2023-02-28T02:48:25;-0.80;1.00
13610;DHT22;6876;50.788;4.940;2023-02-28T02:51:16;-0.70;1.00
13610;DHT22;6876;50.788;4.940;2023-02-28T02:54:08;-0.80;1.00
13610;DHT22;6876;50.788;4.940;2023-02-28T02:56:59;-0.80;1.00
13610;DHT22;6876;50.788;4.940;2023-02-28T02:59:48;-0.80;53.40
13610;DHT22;6876;50.788;4.940;2023-02-28T03:02:38;-0.80;1.00
13610;DHT22;6876;50.788;4.940;2023-02-28T03:05:28;-0.80;99.90
13610;DHT22;6876;50.788;4.940;2023-02-28T03:08:17;-0.80;1.00
13610;DHT22;6876;50.788;4.940;2023-02-28T03:11:10;-0.80;1.00
13610;DHT22;6876;50.788;4.940;2023-02-28T03:14:13;-0.80;1.00
13610;DHT22;6876;50.788;4.940;2023-02-28T03:17:19;-0.90;1.00
13610;DHT22;6876;50.788;4.940;2023-02-28T03:20:17;-0.80;99.90
13610;DHT22;6876;50.788;4.940;2023-02-28T03:23:15;-0.90;99.90
13610;DHT22;6876;50.788;4.940;2023-02-28T03:26:07;-0.90;1.00
13610;DHT22;6876;50.788;4.940;2023-02-28T03:29:05;-1.00;1.00
13610;DHT22;6876;50.788;4.940;2023-02-28T03:32:00;-1.00;1.00
13610;DHT22;6876;50.788;4.940;2023-02-28T03:34:56;-1.10;1.00
13610;DHT22;6876;50.788;4.940;2023-02-28T03:37:46;-1.10;99.90
13610;DHT22;6876;50.788;4.940;2023-02-28T03:40:37;-1.20;99.90
13610;DHT22;6876;50.788;4.940;2023-02-28T03:43:31;-1.10;1.00
13610;DHT22;6876;50.788;4.940;2023-02-28T03:46:22;-1.20;1.00
13610;DHT22;6876;50.788;4.940;2023-02-28T03:49:15;-1.20;1.00
13610;DHT22;6876;50.788;4.940;2023-02-28T03:52:06;-1.20;1.00
13610;DHT22;6876;50.788;4.940;2023-02-28T03:54:58;-1.20;1.00
13610;DHT22;6876;50.788;4.940;2023-02-28T03:57:56;-1.20;1.00
13610;DHT22;6876;50.788;4.940;2023-02-28T04:00:49;-1.20;1.00
13610;DHT22;6876;50.788;4.940;2023-02-28T04:03:40;-1.20;1.00
13610;DHT22;6876;50.788;4.940;2023-02-28T04:06:27;-1.10;1.00
13610;DHT22;6876;50.788;4.940;2023-02-28T04:09:17;-1.00;1.00
13610;DHT22;6876;50.788;4.940;2023-02-28T04:12:05;-0.90;1.00
13610;DHT22;6876;50.788;4.940;2023-02-28T04:14:52;-0.80;99.90
13610;DHT22;6876;50.788;4.940;2023-02-28T04:17:43;-0.80;99.90
13610;DHT22;6876;50.788;4.940;2023-02-28T04:20:30;-0.70;1.00
13610;DHT22;6876;50.788;4.940;2023-02-28T04:23:18;-0.70;99.90
13610;DHT22;6876;50.788;4.940;2023-02-28T04:26:05;-0.80;1.00
13610;DHT22;6876;50.788;4.940;2023-02-28T04:28:54;-0.70;1.00
13610;DHT22;6876;50.788;4.940;2023-02-28T04:31:41;-0.70;99.90
13610;DHT22;6876;50.788;4.940;2023-02-28T04:34:31;-0.80;99.90
13610;DHT22;6876;50.788;4.940;2023-02-28T04:37:18;-0.80;99.90
13610;DHT22;6876;50.788;4.940;2023-02-28T04:40:07;-0.80;99.90
13610;DHT22;6876;50.788;4.940;2023-02-28T04:42:54;-0.80;99.90
13610;DHT22;6876;50.788;4.940;2023-02-28T04:45:42;-0.80;1.00
13610;DHT22;6876;50.788;4.940;2023-02-28T04:48:31;-0.80;1.00
13610;DHT22;6876;50.788;4.940;2023-02-28T04:51:20;-0.80;99.90
13610;DHT22;6876;50.788;4.940;2023-02-28T04:54:07;-0.80;1.00
13610;DHT22;6876;50.788;4.940;2023-02-28T04:56:56;-0.80;99.90
13610;DHT22;6876;50.788;4.940;2023-02-28T04:59:43;-0.90;99.90
13610;DHT22;6876;50.788;4.940;2023-02-28T05:02:30;-1.00;1.00
13610;DHT22;6876;50.788;4.940;2023-02-28T05:05:18;-1.00;1.00
13610;DHT22;6876;50.788;4.940;2023-02-28T05:08:06;-1.00;1.00
13610;DHT22;6876;50.788;4.940;2023-02-28T05:10:55;-1.10;1.00
13610;DHT22;6876;50.788;4.940;2023-02-28T05:13:42;-1.10;1.00
13610;DHT22;6876;50.788;4.940;2023-02-28T05:16:30;-1.10;1.00
13610;DHT22;6876;50.788;4.940;2023-02-28T05:19:18;-1.20;1.00
13610;DHT22;6876;50.788;4.940;2023-02-28T05:22:13;-1.20;1.00
13610;DHT22;6876;50.788;4.940;2023-02-28T05:25:03;-1.20;1.00
13610;DHT22;6876;50.788;4.940;2023-02-28T05:27:50;-1.20;1.00
13610;DHT22;6876;50.788;4.940;2023-02-28T05:30:37;-1.20;1.00
13610;DHT22;6876;50.788;4.940;2023-02-28T05:33:25;-1.20;1.00
13610;DHT22;6876;50.788;4.940;2023-02-28T05:36:12;-1.30;1.00
13610;DHT22;6876;50.788;4.940;2023-02-28T05:38:59;-1.30;1.00
13610;DHT22;6876;50.788;4.940;2023-02-28T05:41:48;-1.30;1.00
13610;DHT22;6876;50.788;4.940;2023-02-28T05:44:36;-1.30;1.00
13610;DHT22;6876;50.788;4.940;2023-02-28T05:47:24;-1.40;1.00
13610;DHT22;6876;50.788;4.940;2023-02-28T05:50:11;-1.40;1.00
13610;DHT22;6876;50.788;4.940;2023-02-28T05:52:58;-1.40;1.00
13610;DHT22;6876;50.788;4.940;2023-02-28T05:55:46;-1.40;1.00
13610;DHT22;6876;50.788;4.940;2023-02-28T05:58:35;-1.40;1.00
13610;DHT22;6876;50.788;4.940;2023-02-28T06:01:32;-1.40;1.00
13610;DHT22;6876;50.788;4.940;2023-02-28T06:04:20;-1.50;1.00
13610;DHT22;6876;50.788;4.940;2023-02-28T06:07:08;-1.60;1.00
13610;DHT22;6876;50.788;4.940;2023-02-28T06:09:55;-1.60;1.00
13610;DHT22;6876;50.788;4.940;2023-02-28T06:12:42;-1.60;1.00
13610;DHT22;6876;50.788;4.940;2023-02-28T06:15:32;-1.60;1.00
13610;DHT22;6876;50.788;4.940;2023-02-28T06:18:20;-1.60;1.00
13610;DHT22;6876;50.788;4.940;2023-02-28T06:21:07;-1.60;1.00
13610;DHT22;6876;50.788;4.940;2023-02-28T06:23:55;-1.60;1.00
13610;DHT22;6876;50.788;4.940;2023-02-28T06:26:42;-1.60;1.00
13610;DHT22;6876;50.788;4.940;2023-02-28T06:29:31;-1.60;1.00
13610;DHT22;6876;50.788;4.940;2023-02-28T06:32:20;-1.60;1.00
13610;DHT22;6876;50.788;4.940;2023-02-28T06:35:08;-1.50;1.00
13610;DHT22;6876;50.788;4.940;2023-02-28T06:37:55;-1.50;1.00
13610;DHT22;6876;50.788;4.940;2023-02-28T06:40:42;-1.40;1.00
13610;DHT22;6876;50.788;4.940;2023-02-28T06:43:33;-1.40;1.00
13610;DHT22;6876;50.788;4.940;2023-02-28T06:46:21;-1.30;1.00
13610;DHT22;6876;50.788;4.940;2023-02-28T06:49:10;-1.20;1.00
13610;DHT22;6876;50.788;4.940;2023-02-28T06:51:57;-1.20;1.00
13610;DHT22;6876;50.788;4.940;2023-02-28T06:54:45;-1.20;1.00
13610;DHT22;6876;50.788;4.940;2023-02-28T06:57:33;-1.00;1.00
13610;DHT22;6876;50.788;4.940;2023-02-28T07:00:22;-0.50;1.00
13610;DHT22;6876;50.788;4.940;2023-02-28T07:03:09;0.60;1.00
13610;DHT22;6876;50.788;4.940;2023-02-28T07:05:58;1.10;1.00
13610;DHT22;6876;50.788;4.940;2023-02-28T07:08:46;1.50;1.00
13610;DHT22;6876;50.788;4.940;2023-02-28T07:11:33;1.50;99.90
13610;DHT22;6876;50.788;4.940;2023-02-28T07:14:20;1.30;1.00
13610;DHT22;6876;50.788;4.940;2023-02-28T07:17:08;1.40;1.00
13610;DHT22;6876;50.788;4.940;2023-02-28T07:19:56;1.60;1.00
13610;DHT22;6876;50.788;4.940;2023-02-28T07:22:45;1.40;1.00
13610;DHT22;6876;50.788;4.940;2023-02-28T07:25:37;1.00;1.00
13610;DHT22;6876;50.788;4.940;2023-02-28T07:28:25;0.50;1.00
13610;DHT22;6876;50.788;4.940;2023-02-28T07:31:13;0.30;1.00
13610;DHT22;6876;50.788;4.940;2023-02-28T07:34:01;0.20;1.00
13610;DHT22;6876;50.788;4.940;2023-02-28T07:36:49;0.10;1.00
13610;DHT22;6876;50.788;4.940;2023-02-28T07:39:41;0.10;1.00
13610;DHT22;6876;50.788;4.940;2023-02-28T07:42:29;0.10;1.00
13610;DHT22;6876;50.788;4.940;2023-02-28T07:45:16;0.10;1.00
13610;DHT22;6876;50.788;4.940;2023-02-28T07:48:04;0.10;1.00
13610;DHT22;6876;50.788;4.940;2023-02-28T07:50:54;0.20;1.00
13610;DHT22;6876;50.788;4.940;2023-02-28T07:53:42;0.20;99.90
13610;DHT22;6876;50.788;4.940;2023-02-28T07:56:31;0.30;99.90
13610;DHT22;6876;50.788;4.940;2023-02-28T07:59:18;0.60;99.90
13610;DHT22;6876;50.788;4.940;2023-02-28T08:02:05;1.50;99.90
13610;DHT22;6876;50.788;4.940;2023-02-28T08:04:52;2.30;1.00
13610;DHT22;6876;50.788;4.940;2023-02-28T08:07:40;4.40;1.00
13610;DHT22;6876;50.788;4.940;2023-02-28T08:10:27;6.80;94.10
13610;DHT22;6876;50.788;4.940;2023-02-28T08:13:15;8.40;99.90
13610;DHT22;6876;50.788;4.940;2023-02-28T08:16:04;9.20;99.90
13610;DHT22;6876;50.788;4.940;2023-02-28T08:18:52;9.50;99.90
13610;DHT22;6876;50.788;4.940;2023-02-28T08:21:39;9.70;99.90
13610;DHT22;6876;50.788;4.940;2023-02-28T08:24:27;10.30;99.90
13610;DHT22;6876;50.788;4.940;2023-02-28T08:27:14;11.70;99.90
13610;DHT22;6876;50.788;4.940;2023-02-28T08:30:04;11.80;99.90
13610;DHT22;6876;50.788;4.940;2023-02-28T08:32:51;11.50;99.90
13610;DHT22;6876;50.788;4.940;2023-02-28T08:35:38;12.10;99.90
13610;DHT22;6876;50.788;4.940;2023-02-28T08:38:26;12.20;99.90
13610;DHT22;6876;50.788;4.940;2023-02-28T08:41:13;12.40;99.90
13610;DHT22;6876;50.788;4.940;2023-02-28T08:44:00;12.40;99.50
13610;DHT22;6876;50.788;4.940;2023-02-28T08:46:49;11.90;99.90
13610;DHT22;6876;50.788;4.940;2023-02-28T08:49:37;12.40;99.30
13610;DHT22;6876;50.788;4.940;2023-02-28T08:52:24;13.00;97.80
13610;DHT22;6876;50.788;4.940;2023-02-28T08:55:11;13.40;97.10
13610;DHT22;6876;50.788;4.940;2023-02-28T08:57:59;14.10;96.30
13610;DHT22;6876;50.788;4.940;2023-02-28T09:00:47;14.80;94.20
13610;DHT22;6876;50.788;4.940;2023-02-28T09:03:35;14.80;93.60
13610;DHT22;6876;50.788;4.940;2023-02-28T09:06:24;15.20;92.30
13610;DHT22;6876;50.788;4.940;2023-02-28T09:09:12;15.60;91.20
13610;DHT22;6876;50.788;4.940;2023-02-28T09:11:59;15.80;90.00
13610;DHT22;6876;50.788;4.940;2023-02-28T09:14:47;14.70;90.20
13610;DHT22;6876;50.788;4.940;2023-02-28T09:17:34;14.60;90.50
13610;DHT22;6876;50.788;4.940;2023-02-28T09:20:23;15.30;90.20
13610;DHT22;6876;50.788;4.940;2023-02-28T09:23:13;16.60;86.80
13610;DHT22;6876;50.788;4.940;2023-02-28T09:26:00;16.40;86.20
13610;DHT22;6876;50.788;4.940;2023-02-28T09:28:47;17.00;82.70
13610;DHT22;6876;50.788;4.940;2023-02-28T09:31:35;16.80;81.30
13610;DHT22;6876;50.788;4.940;2023-02-28T09:34:22;16.60;81.40
13610;DHT22;6876;50.788;4.940;2023-02-28T09:37:11;17.30;78.60
13610;DHT22;6876;50.788;4.940;2023-02-28T09:39:58;17.40;77.30
13610;DHT22;6876;50.788;4.940;2023-02-28T09:42:47;17.70;77.10
13610;DHT22;6876;50.788;4.940;2023-02-28T09:45:37;18.10;73.80
13610;DHT22;6876;50.788;4.940;2023-02-28T09:48:31;18.40;71.20
13610;DHT22;6876;50.788;4.940;2023-02-28T09:51:33;17.30;69.50
13610;DHT22;6876;50.788;4.940;2023-02-28T09:54:24;16.40;70.60
13610;DHT22;6876;50.788;4.940;2023-02-28T09:57:17;16.70;70.10
13610;DHT22;6876;50.788;4.940;2023-02-28T10:00:13;16.50;69.10
13610;DHT22;6876;50.788;4.940;2023-02-28T10:03:11;16.10;69.50
13610;DHT22;6876;50.788;4.940;2023-02-28T10:06:06;16.70;69.60
13610;DHT22;6876;50.788;4.940;2023-02-28T10:09:00;16.50;68.50
13610;DHT22;6876;50.788;4.940;2023-02-28T10:11:50;16.50;68.40
13610;DHT22;6876;50.788;4.940;2023-02-28T10:14:44;15.90;65.90
13610;DHT22;6876;50.788;4.940;2023-02-28T10:17:38;16.10;67.60
13610;DHT22;6876;50.788;4.940;2023-02-28T10:20:27;16.30;67.60
13610;DHT22;6876;50.788;4.940;2023-02-28T10:23:21;15.30;66.10
13610;DHT22;6876;50.788;4.940;2023-02-28T10:26:12;14.30;69.20
13610;DHT22;6876;50.788;4.940;2023-02-28T10:29:03;12.50;72.10
13610;DHT22;6876;50.788;4.940;2023-02-28T10:31:50;13.80;72.20
13610;DHT22;6876;50.788;4.940;2023-02-28T10:34:38;14.30;71.50
13610;DHT22;6876;50.788;4.940;2023-02-28T10:37:25;13.90;68.80
13610;DHT22;6876;50.788;4.940;2023-02-28T10:40:27;13.10;69.20
13610;DHT22;6876;50.788;4.940;2023-02-28T10:43:22;12.80;70.70
13610;DHT22;6876;50.788;4.940;2023-02-28T10:46:15;12.30;73.80
13610;DHT22;6876;50.788;4.940;2023-02-28T10:49:14;11.50;72.30
13610;DHT22;6876;50.788;4.940;2023-02-28T10:52:04;9.80;73.00
13610;DHT22;6876;50.788;4.940;2023-02-28T10:55:15;9.30;74.30
13610;DHT22;6876;50.788;4.940;2023-02-28T10:58:21;8.60;77.00
13610;DHT22;6876;50.788;4.940;2023-02-28T11:01:15;8.30;77.80
13610;DHT22;6876;50.788;4.940;2023-02-28T11:04:03;7.10;80.20
13610;DHT22;6876;50.788;4.940;2023-02-28T11:06:57;7.00;80.70
13610;DHT22;6876;50.788;4.940;2023-02-28T11:09:46;7.10;80.10
13610;DHT22;6876;50.788;4.940;2023-02-28T11:12:37;7.30;80.80
13610;DHT22;6876;50.788;4.940;2023-02-28T11:15:28;7.50;81.00
13610;DHT22;6876;50.788;4.940;2023-02-28T11:18:24;8.10;81.40
13610;DHT22;6876;50.788;4.940;2023-02-28T11:21:20;7.80;81.20
13610;DHT22;6876;50.788;4.940;2023-02-28T11:24:24;7.50;79.30
13610;DHT22;6876;50.788;4.940;2023-02-28T11:30:33;7.30;80.90
13610;DHT22;6876;50.788;4.940;2023-02-28T11:33:25;7.60;81.10
13610;DHT22;6876;50.788;4.940;2023-02-28T11:36:16;7.60;81.10
13610;DHT22;6876;50.788;4.940;2023-02-28T11:39:08;7.80;80.90
13610;DHT22;6876;50.788;4.940;2023-02-28T11:42:09;7.30;80.10
13610;DHT22;6876;50.788;4.940;2023-02-28T11:45:15;7.70;81.20
13610;DHT22;6876;50.788;4.940;2023-02-28T11:48:11;7.60;80.50
13610;DHT22;6876;50.788;4.940;2023-02-28T11:51:10;7.40;81.00
13610;DHT22;6876;50.788;4.940;2023-02-28T11:57:32;7.30;79.90
13610;DHT22;6876;50.788;4.940;2023-02-28T12:00:35;7.20;80.90
13610;DHT22;6876;50.788;4.940;2023-02-28T12:03:31;6.90;80.60
13610;DHT22;6876;50.788;4.940;2023-02-28T12:06:28;6.80;79.50
13610;DHT22;6876;50.788;4.940;2023-02-28T12:09:34;6.80;80.10
13610;DHT22;6876;50.788;4.940;2023-02-28T12:12:34;6.70;79.20
13610;DHT22;6876;50.788;4.940;2023-02-28T12:15:43;6.40;80.20
13610;DHT22;6876;50.788;4.940;2023-02-28T12:18:43;6.20;80.10
13610;DHT22;6876;50.788;4.940;2023-02-28T12:21:41;6.20;80.30
13610;DHT22;6876;50.788;4.940;2023-02-28T12:24:52;6.30;80.30
13610;DHT22;6876;50.788;4.940;2023-02-28T12:27:44;6.30;79.90
13610;DHT22;6876;50.788;4.940;2023-02-28T12:30:34;6.10;80.10
13610;DHT22;6876;50.788;4.940;2023-02-28T12:33:25;6.00;80.10
13610;DHT22;6876;50.788;4.940;2023-02-28T12:36:16;5.90;82.50
13610;DHT22;6876;50.788;4.940;2023-02-28T12:39:10;5.60;80.00
13610;DHT22;6876;50.788;4.940;2023-02-28T12:42:03;5.60;83.30
13610;DHT22;6876;50.788;4.940;2023-02-28T12:44:58;5.80;80.90
13610;DHT22;6876;50.788;4.940;2023-02-28T12:47:50;6.00;80.10
13610;DHT22;6876;50.788;4.940;2023-02-28T12:50:40;6.00;80.10
13610;DHT22;6876;50.788;4.940;2023-02-28T12:53:31;5.90;80.20
13610;DHT22;6876;50.788;4.940;2023-02-28T12:56:33;5.80;82.60
13610;DHT22;6876;50.788;4.940;2023-02-28T12:59:25;5.80;80.10
13610;DHT22;6876;50.788;4.940;2023-02-28T13:09:02;5.60;80.90
13610;DHT22;6876;50.788;4.940;2023-02-28T13:11:53;5.50;82.10
13610;DHT22;6876;50.788;4.940;2023-02-28T13:14:43;5.50;83.10
13610;DHT22;6876;50.788;4.940;2023-02-28T13:17:30;5.50;83.10
13610;DHT22;6876;50.788;4.940;2023-02-28T13:20:19;5.50;85.00
13610;DHT22;6876;50.788;4.940;2023-02-28T13:23:37;5.40;83.80
13610;DHT22;6876;50.788;4.940;2023-02-28T13:29:52;5.20;82.30
13610;DHT22;6876;50.788;4.940;2023-02-28T13:32:39;5.20;84.00
13610;DHT22;6876;50.788;4.940;2023-02-28T13:35:43;5.20;82.60
13610;DHT22;6876;50.788;4.940;2023-02-28T13:38:40;5.30;83.10
13610;DHT22;6876;50.788;4.940;2023-02-28T13:41:45;5.40;84.00
13610;DHT22;6876;50.788;4.940;2023-02-28T13:48:01;5.40;83.40
13610;DHT22;6876;50.788;4.940;2023-02-28T13:50:49;5.30;83.60
13610;DHT22;6876;50.788;4.940;2023-02-28T13:53:59;5.30;82.80
13610;DHT22;6876;50.788;4.940;2023-02-28T13:56:56;5.30;84.70
13610;DHT22;6876;50.788;4.940;2023-02-28T13:59:52;5.40;84.40
13610;DHT22;6876;50.788;4.940;2023-02-28T14:03:04;5.30;84.80
13610;DHT22;6876;50.788;4.940;2023-02-28T14:06:08;5.30;84.90
13610;DHT22;6876;50.788;4.940;2023-02-28T14:08:59;5.40;85.90
13610;DHT22;6876;50.788;4.940;2023-02-28T14:11:49;5.40;86.30
13610;DHT22;6876;50.788;4.940;2023-02-28T14:14:54;5.40;84.80
13610;DHT22;6876;50.788;4.940;2023-02-28T14:17:43;5.40;85.60
13610;DHT22;6876;50.788;4.940;2023-02-28T14:20:33;5.40;86.60
13610;DHT22;6876;50.788;4.940;2023-02-28T14:23:39;5.40;85.40
13610;DHT22;6876;50.788;4.940;2023-02-28T14:26:45;5.40;85.50
13610;DHT22;6876;50.788;4.940;2023-02-28T14:33:35;5.30;85.60
13610;DHT22;6876;50.788;4.940;2023-02-28T14:36:32;5.20;85.20
13610;DHT22;6876;50.788;4.940;2023-02-28T14:39:22;5.20;85.50
13610;DHT22;6876;50.788;4.940;2023-02-28T14:42:27;5.10;85.30
13610;DHT22;6876;50.788;4.940;2023-02-28T14:45:20;5.20;87.50
13610;DHT22;6876;50.788;4.940;2023-02-28T14:48:10;5.20;88.30
13610;DHT22;6876;50.788;4.940;2023-02-28T14:50:59;5.20;88.40
13610;DHT22;6876;50.788;4.940;2023-02-28T14:53:51;5.30;88.00
13610;DHT22;6876;50.788;4.940;2023-02-28T14:56:40;5.30;87.70
13610;DHT22;6876;50.788;4.940;2023-02-28T14:59:29;5.20;86.60
13610;DHT22;6876;50.788;4.940;2023-02-28T15:02:18;5.10;86.80
13610;DHT22;6876;50.788;4.940;2023-02-28T15:05:26;5.20;88.20
13610;DHT22;6876;50.788;4.940;2023-02-28T15:08:15;5.10;87.40
13610;DHT22;6876;50.788;4.940;2023-02-28T15:11:06;5.10;87.00
13610;DHT22;6876;50.788;4.940;2023-02-28T15:13:55;5.00;87.10
13610;DHT22;6876;50.788;4.940;2023-02-28T15:16:45;5.10;87.60
13610;DHT22;6876;50.788;4.940;2023-02-28T15:19:39;5.10;87.80
13610;DHT22;6876;50.788;4.940;2023-02-28T15:22:34;5.10;88.90
13610;DHT22;6876;50.788;4.940;2023-02-28T15:25:23;5.10;89.30
13610;DHT22;6876;50.788;4.940;2023-02-28T15:28:16;5.10;89.00
13610;DHT22;6876;50.788;4.940;2023-02-28T15:31:19;5.00;89.10
13610;DHT22;6876;50.788;4.940;2023-02-28T15:34:18;5.00;89.80
13610;DHT22;6876;50.788;4.940;2023-02-28T15:40:17;5.00;90.20
13610;DHT22;6876;50.788;4.940;2023-02-28T15:43:06;4.90;90.20
13610;DHT22;6876;50.788;4.940;2023-02-28T15:45:58;5.00;90.20
13610;DHT22;6876;50.788;4.940;2023-02-28T15:48:52;4.80;90.50
13610;DHT22;6876;50.788;4.940;2023-02-28T15:51:39;4.80;91.20
13610;DHT22;6876;50.788;4.940;2023-02-28T15:54:29;4.70;90.80
13610;DHT22;6876;50.788;4.940;2023-02-28T15:57:21;4.70;91.20
13610;DHT22;6876;50.788;4.940;2023-02-28T16:00:14;4.80;91.50
13610;DHT22;6876;50.788;4.940;2023-02-28T16:03:22;4.80;91.70
13610;DHT22;6876;50.788;4.940;2023-02-28T16:06:32;4.80;92.10
13610;DHT22;6876;50.788;4.940;2023-02-28T16:09:19;4.80;92.10
13610;DHT22;6876;50.788;4.940;2023-02-28T16:12:09;4.80;92.20
13610;DHT22;6876;50.788;4.940;2023-02-28T16:15:02;4.70;92.40
13610;DHT22;6876;50.788;4.940;2023-02-28T16:17:50;4.70;92.70
13610;DHT22;6876;50.788;4.940;2023-02-28T16:20:39;4.60;92.70
13610;DHT22;6876;50.788;4.940;2023-02-28T16:23:27;4.60;93.20
13610;DHT22;6876;50.788;4.940;2023-02-28T16:26:20;4.60;93.60
13610;DHT22;6876;50.788;4.940;2023-02-28T16:29:10;4.50;92.90
13610;DHT22;6876;50.788;4.940;2023-02-28T16:32:01;4.50;92.80
13610;DHT22;6876;50.788;4.940;2023-02-28T16:34:48;4.40;92.90
13610;DHT22;6876;50.788;4.940;2023-02-28T16:37:37;4.40;93.30
13610;DHT22;6876;50.788;4.940;2023-02-28T16:40:26;4.30;93.10
13610;DHT22;6876;50.788;4.940;2023-02-28T16:43:17;4.30;93.20
13610;DHT22;6876;50.788;4.940;2023-02-28T16:46:10;4.20;93.50
13610;DHT22;6876;50.788;4.940;2023-02-28T16:48:57;4.20;93.50
13610;DHT22;6876;50.788;4.940;2023-02-28T16:51:45;4.20;93.60
13610;DHT22;6876;50.788;4.940;2023-02-28T16:54:34;4.20;94.00
13610;DHT22;6876;50.788;4.940;2023-02-28T16:57:22;4.10;94.10
13610;DHT22;6876;50.788;4.940;2023-02-28T17:00:13;4.10;94.40
13610;DHT22;6876;50.788;4.940;2023-02-28T17:03:01;4.00;94.70
13610;DHT22;6876;50.788;4.940;2023-02-28T17:05:48;3.90;95.20
13610;DHT22;6876;50.788;4.940;2023-02-28T17:08:35;3.80;95.80
13610;DHT22;6876;50.788;4.940;2023-02-28T17:11:24;3.70;95.90
13610;DHT22;6876;50.788;4.940;2023-02-28T17:14:12;3.80;96.10
13610;DHT22;6876;50.788;4.940;2023-02-28T17:17:00;3.60;96.00
13610;DHT22;6876;50.788;4.940;2023-02-28T17:19:48;3.60;96.00
13610;DHT22;6876;50.788;4.940;2023-02-28T17:22:35;3.50;96.10
13610;DHT22;6876;50.788;4.940;2023-02-28T17:25:23;3.50;96.30
13610;DHT22;6876;50.788;4.940;2023-02-28T17:28:12;3.40;96.50
13610;DHT22;6876;50.788;4.940;2023-02-28T17:30:59;3.40;96.60
13610;DHT22;6876;50.788;4.940;2023-02-28T17:33:46;3.30;96.70
13610;DHT22;6876;50.788;4.940;2023-02-28T17:36:34;3.30;96.90
13610;DHT22;6876;50.788;4.940;2023-02-28T17:39:22;3.20;97.50
13610;DHT22;6876;50.788;4.940;2023-02-28T17:42:10;3.20;97.80
13610;DHT22;6876;50.788;4.940;2023-02-28T17:44:59;3.10;98.00
13610;DHT22;6876;50.788;4.940;2023-02-28T17:47:48;3.00;98.00
13610;DHT22;6876;50.788;4.940;2023-02-28T17:50:36;3.10;98.30
13610;DHT22;6876;50.788;4.940;2023-02-28T17:53:23;3.00;98.50
13610;DHT22;6876;50.788;4.940;2023-02-28T17:56:12;3.00;98.70
13610;DHT22;6876;50.788;4.940;2023-02-28T17:59:00;2.90;98.80
13610;DHT22;6876;50.788;4.940;2023-02-28T18:01:49;2.90;99.20
13610;DHT22;6876;50.788;4.940;2023-02-28T18:04:36;3.00;99.30
13610;DHT22;6876;50.788;4.940;2023-02-28T18:07:24;2.90;99.90
13610;DHT22;6876;50.788;4.940;2023-02-28T18:10:14;2.80;99.70
13610;DHT22;6876;50.788;4.940;2023-02-28T18:13:04;2.70;99.90
13610;DHT22;6876;50.788;4.940;2023-02-28T18:15:52;2.70;99.90
13610;DHT22;6876;50.788;4.940;2023-02-28T18:18:41;2.60;99.90
13610;DHT22;6876;50.788;4.940;2023-02-28T18:21:29;2.50;99.90
13610;DHT22;6876;50.788;4.940;2023-02-28T18:24:17;2.50;99.90
13610;DHT22;6876;50.788;4.940;2023-02-28T18:27:05;2.50;99.90
13610;DHT22;6876;50.788;4.940;2023-02-28T18:29:52;2.40;99.90
13610;DHT22;6876;50.788;4.940;2023-02-28T18:32:39;2.40;99.90
13610;DHT22;6876;50.788;4.940;2023-02-28T18:35:28;2.30;99.90
13610;DHT22;6876;50.788;4.940;2023-02-28T18:38:22;2.30;99.90
13610;DHT22;6876;50.788;4.940;2023-02-28T18:41:09;2.30;99.90
13610;DHT22;6876;50.788;4.940;2023-02-28T18:43:59;2.20;99.90
13610;DHT22;6876;50.788;4.940;2023-02-28T18:46:48;2.20;99.90
13610;DHT22;6876;50.788;4.940;2023-02-28T18:49:35;2.10;99.90
13610;DHT22;6876;50.788;4.940;2023-02-28T18:52:24;2.10;99.90
13610;DHT22;6876;50.788;4.940;2023-02-28T18:55:12;2.10;99.90
13610;DHT22;6876;50.788;4.940;2023-02-28T18:58:03;2.10;99.90
13610;DHT22;6876;50.788;4.940;2023-02-28T19:00:51;2.10;99.90
13610;DHT22;6876;50.788;4.940;2023-02-28T19:03:38;2.10;99.90
13610;DHT22;6876;50.788;4.940;2023-02-28T19:06:26;2.10;99.90